createdAt,value
2022-09-02T00:01:33.163Z,2.83
2022-09-02T00:04:03.820Z,2.75
2022-09-02T00:06:31.968Z,2.50
2022-09-02T00:09:00.275Z,2.55
2022-09-02T00:11:30.528Z,2.78
2022-09-02T00:14:02.844Z,2.50
2022-09-02T00:16:31.678Z,2.83
2022-09-02T00:19:00.510Z,2.75
2022-09-02T00:21:27.744Z,2.53
2022-09-02T00:23:55.015Z,3.20
2022-09-02T00:26:22.750Z,3.15
2022-09-02T00:28:55.758Z,3.40
2022-09-02T00:31:25.998Z,4.30
2022-09-02T00:33:53.506Z,4.20
2022-09-02T00:36:20.905Z,4.07
2022-09-02T00:38:48.712Z,3.55
2022-09-02T00:41:16.081Z,3.28
2022-09-02T00:43:50.828Z,3.92
2022-09-02T00:46:21.431Z,4.20
2022-09-02T00:48:57.644Z,4.40
2022-09-02T00:51:28.828Z,3.75
2022-09-02T00:53:56.584Z,2.90
2022-09-02T00:56:28.073Z,3.45
2022-09-02T00:58:56.257Z,3.35
2022-09-02T01:01:24.535Z,3.08
2022-09-02T01:03:51.933Z,3.15
2022-09-02T01:06:25.068Z,3.97
2022-09-02T01:08:58.575Z,5.30
2022-09-02T01:11:32.394Z,3.90
2022-09-02T01:13:59.647Z,3.83
2022-09-02T01:16:33.584Z,3.28
2022-09-02T01:19:04.472Z,4.65
2022-09-02T01:21:31.837Z,4.18
2022-09-02T01:23:59.699Z,3.97
2022-09-02T01:26:27.045Z,3.58
2022-09-02T01:28:54.373Z,3.92
2022-09-02T01:31:21.618Z,3.80
2022-09-02T01:33:49.017Z,3.85
2022-09-02T01:36:16.819Z,4.40
2022-09-02T01:38:44.063Z,3.95
2022-09-02T01:41:11.349Z,4.53
2022-09-02T01:43:39.314Z,3.83
2022-09-02T01:46:06.656Z,4.45
2022-09-02T01:48:33.980Z,3.83
2022-09-02T01:51:05.679Z,5.00
2022-09-02T01:53:33.710Z,3.80
2022-09-02T01:56:01.150Z,3.85
2022-09-02T01:58:32.544Z,3.28
2022-09-02T02:00:59.810Z,3.55
2022-09-02T02:03:27.472Z,3.90
2022-09-02T02:05:58.220Z,3.42
2022-09-02T02:08:25.655Z,3.80
2022-09-02T02:10:52.896Z,4.28
2022-09-02T02:13:21.319Z,3.60
2022-09-02T02:15:48.681Z,4.82
2022-09-02T02:18:17.234Z,4.38
2022-09-02T02:20:44.980Z,4.63
2022-09-02T02:23:13.005Z,4.43
2022-09-02T02:25:40.446Z,4.18
2022-09-02T02:28:07.803Z,3.42
2022-09-02T02:30:35.667Z,3.65
2022-09-02T02:33:04.160Z,3.92
2022-09-02T02:35:31.593Z,3.50
2022-09-02T02:37:58.813Z,4.00
2022-09-02T02:40:30.990Z,4.07
2022-09-02T02:42:58.914Z,4.22
2022-09-02T02:45:26.301Z,3.47
2022-09-02T02:47:54.329Z,4.90
2022-09-02T02:50:24.598Z,3.90
2022-09-02T02:52:54.740Z,4.47
2022-09-02T02:55:24.539Z,3.65
2022-09-02T02:57:52.269Z,3.85
2022-09-02T03:00:28.619Z,4.18
2022-09-02T03:03:01.579Z,5.30
2022-09-02T03:05:30.102Z,4.65
2022-09-02T03:07:58.491Z,4.82
2022-09-02T03:10:27.303Z,5.03
2022-09-02T03:12:54.900Z,4.60
2022-09-02T03:15:23.339Z,4.88
2022-09-02T03:17:55.420Z,5.50
2022-09-02T03:20:24.133Z,5.10
2022-09-02T03:22:57.523Z,3.20
2022-09-02T03:25:26.740Z,4.63
2022-09-02T03:27:57.277Z,5.10
2022-09-02T03:30:28.131Z,4.57
2022-09-02T03:33:03.097Z,5.43
2022-09-02T03:35:33.696Z,4.82
2022-09-02T03:38:01.727Z,6.22
2022-09-02T03:40:30.183Z,6.30
2022-09-02T03:43:00.185Z,4.93
2022-09-02T03:45:29.897Z,5.22
2022-09-02T03:47:59.904Z,3.60
2022-09-02T03:50:36.456Z,2.97
2022-09-02T03:53:05.652Z,4.47
2022-09-02T03:55:33.588Z,4.93
2022-09-02T03:58:04.396Z,6.28
2022-09-02T04:00:38.001Z,6.15
2022-09-02T04:03:06.347Z,7.03
2022-09-02T04:05:33.915Z,6.65
2022-09-02T04:08:02.244Z,6.40
2022-09-02T04:10:29.797Z,8.15
2022-09-02T04:12:57.689Z,8.02
2022-09-02T04:15:25.320Z,7.88
2022-09-02T04:17:53.224Z,7.63
2022-09-02T04:20:21.869Z,7.78
2022-09-02T04:22:49.515Z,8.60
2022-09-02T04:25:17.550Z,8.25
2022-09-02T04:27:47.207Z,7.65
2022-09-02T04:30:17.056Z,7.57
2022-09-02T04:32:46.120Z,7.55
2022-09-02T04:35:13.692Z,5.10
2022-09-02T04:37:41.817Z,7.03
2022-09-02T04:40:10.575Z,7.50
2022-09-02T04:42:38.688Z,6.90
2022-09-02T04:45:07.359Z,8.35
2022-09-02T04:47:34.908Z,8.40
2022-09-02T04:50:04.015Z,8.40
2022-09-02T04:52:34.814Z,7.47
2022-09-02T04:55:02.572Z,8.52
2022-09-02T04:57:32.271Z,8.23
2022-09-02T05:00:01.335Z,6.22
2022-09-02T05:02:29.317Z,6.70
2022-09-02T05:04:56.884Z,6.70
2022-09-02T05:07:30.930Z,6.93
2022-09-02T05:10:00.031Z,6.03
2022-09-02T05:12:32.711Z,7.50
2022-09-02T05:15:01.299Z,7.85
2022-09-02T05:17:32.980Z,6.93
2022-09-02T05:20:02.015Z,7.22
2022-09-02T05:22:30.504Z,5.68
2022-09-02T05:25:00.382Z,6.05
2022-09-02T05:27:29.612Z,6.65
2022-09-02T05:29:59.544Z,6.45
2022-09-02T05:32:28.556Z,7.10
2022-09-02T05:34:56.532Z,6.40
2022-09-02T05:37:24.997Z,7.20
2022-09-02T05:39:53.154Z,7.15
2022-09-02T05:42:21.299Z,8.73
2022-09-02T05:44:51.856Z,7.60
2022-09-02T05:47:21.587Z,7.65
2022-09-02T05:49:49.391Z,7.85
2022-09-02T05:52:18.168Z,8.20
2022-09-02T05:54:49.405Z,7.68
2022-09-02T05:57:19.167Z,7.80
2022-09-02T06:00:08.571Z,6.53
2022-09-02T06:02:42.652Z,8.15
2022-09-02T06:05:18.893Z,6.93
2022-09-02T06:07:53.340Z,6.80
2022-09-02T06:10:22.756Z,5.28
2022-09-02T06:12:50.733Z,6.32
2022-09-02T06:15:21.415Z,6.50
2022-09-02T06:17:49.520Z,5.90
2022-09-02T06:20:17.414Z,6.55
2022-09-02T06:22:45.133Z,3.03
2022-09-02T06:25:13.038Z,3.08
2022-09-02T06:27:41.681Z,3.60
2022-09-02T06:30:10.404Z,4.00
2022-09-02T06:32:37.924Z,3.75
2022-09-02T06:35:10.744Z,4.50
2022-09-02T06:37:39.056Z,4.90
2022-09-02T06:40:06.936Z,4.65
2022-09-02T06:42:34.482Z,5.28
2022-09-02T06:45:15.228Z,5.50
2022-09-02T06:47:45.825Z,5.50
2022-09-02T06:50:14.695Z,4.78
2022-09-02T06:52:42.968Z,3.92
2022-09-02T06:55:13.459Z,2.97
2022-09-02T06:57:40.810Z,4.78
2022-09-02T07:00:12.793Z,3.50
2022-09-02T07:02:43.990Z,3.15
2022-09-02T07:05:15.161Z,2.70
2022-09-02T07:07:46.020Z,2.90
2022-09-02T07:10:15.420Z,3.00
2022-09-02T07:12:47.656Z,2.85
2022-09-02T07:15:17.311Z,2.85
2022-09-02T07:17:45.037Z,3.50
2022-09-02T07:20:18.571Z,2.60
2022-09-02T07:22:53.340Z,2.97
2022-09-02T07:25:22.064Z,2.50
2022-09-02T07:27:51.587Z,3.50
2022-09-02T07:30:19.611Z,3.05
2022-09-02T07:32:50.311Z,2.88
2022-09-02T07:35:21.489Z,3.22
2022-09-02T07:37:50.817Z,3.03
2022-09-02T07:40:19.707Z,3.30
2022-09-02T07:42:47.594Z,3.42
2022-09-02T07:45:15.376Z,3.15
2022-09-02T07:47:45.128Z,2.60
2022-09-02T07:50:20.078Z,2.97
2022-09-02T07:56:33.796Z,3.40
2022-09-02T07:59:01.851Z,2.58
2022-09-02T08:01:30.816Z,3.30
2022-09-02T08:04:00.341Z,2.90
2022-09-02T08:06:39.194Z,2.90
2022-09-02T08:09:12.860Z,2.45
2022-09-02T08:11:42.527Z,2.72
2022-09-02T08:14:12.003Z,2.95
2022-09-02T08:16:42.023Z,3.17
2022-09-02T08:19:09.670Z,2.75
2022-09-02T08:21:36.989Z,2.78
2022-09-02T08:24:05.671Z,2.50
2022-09-02T08:26:37.329Z,2.95
2022-09-02T08:29:06.699Z,3.55
2022-09-02T08:31:36.557Z,2.53
2022-09-02T08:34:04.068Z,2.50
2022-09-02T08:36:31.300Z,2.80
2022-09-02T08:39:03.382Z,2.13
2022-09-02T08:41:41.698Z,2.88
2022-09-02T08:44:12.517Z,2.42
2022-09-02T08:46:40.150Z,2.60
2022-09-02T08:49:11.208Z,2.78
2022-09-02T08:51:51.036Z,2.33
2022-09-02T08:54:39.421Z,2.28
2022-09-02T08:57:09.271Z,2.53
2022-09-02T08:59:37.850Z,2.17
2022-09-02T09:02:17.782Z,2.08
2022-09-02T09:05:20.497Z,2.47
2022-09-02T09:07:59.840Z,2.45
2022-09-02T09:10:57.142Z,2.20
2022-09-02T09:13:53.757Z,2.38
2022-09-02T09:16:45.394Z,2.45
2022-09-02T09:19:27.297Z,2.05
2022-09-02T09:21:57.648Z,2.25
2022-09-02T09:24:38.763Z,1.90
2022-09-02T09:27:12.686Z,2.35
2022-09-02T09:29:40.092Z,1.73
2022-09-02T09:32:16.339Z,2.22
2022-09-02T09:34:52.725Z,1.88
2022-09-02T09:37:35.920Z,1.90
2022-09-02T09:40:20.439Z,2.13
2022-09-02T09:43:27.002Z,1.98
2022-09-02T09:45:57.329Z,1.75
2022-09-02T09:48:30.852Z,1.83
2022-09-02T09:50:58.066Z,2.00
2022-09-02T09:53:31.150Z,1.80
2022-09-02T09:58:41.834Z,2.00
2022-09-02T10:01:22.148Z,2.13
2022-09-02T10:03:53.155Z,2.03
2022-09-02T10:06:31.146Z,1.70
2022-09-02T10:09:05.960Z,1.85
2022-09-02T10:11:37.879Z,1.83
2022-09-02T10:14:07.078Z,1.83
2022-09-02T10:16:53.159Z,3.00
2022-09-02T10:19:45.412Z,1.83
2022-09-02T10:22:59.874Z,1.85
2022-09-02T10:25:48.708Z,2.00
2022-09-02T10:28:40.648Z,2.30
2022-09-02T10:31:46.010Z,2.03
2022-09-02T10:34:56.023Z,1.83
2022-09-02T10:38:27.127Z,1.67
2022-09-02T10:41:59.882Z,2.17
2022-09-02T10:45:13.839Z,1.85
2022-09-02T10:48:02.741Z,2.25
2022-09-02T10:50:53.440Z,1.65
2022-09-02T10:53:35.954Z,2.33
2022-09-02T10:56:10.143Z,1.37
2022-09-02T10:58:41.117Z,1.90
2022-09-02T11:01:15.510Z,1.77
2022-09-02T11:03:49.916Z,1.95
2022-09-02T11:06:35.412Z,1.77
2022-09-02T11:09:27.410Z,2.00
2022-09-02T11:12:16.759Z,1.90
2022-09-02T11:15:23.987Z,1.80
2022-09-02T11:20:51.876Z,2.22
2022-09-02T11:23:59.460Z,1.55
2022-09-02T11:26:58.618Z,1.40
2022-09-02T11:29:53.522Z,2.05
2022-09-02T11:32:46.253Z,2.10
2022-09-02T11:35:28.603Z,1.83
2022-09-02T11:38:03.096Z,1.67
2022-09-02T11:40:39.311Z,1.35
2022-09-02T11:43:25.144Z,1.67
2022-09-02T11:46:27.521Z,1.75
2022-09-02T11:49:09.972Z,1.52
2022-09-02T11:52:09.129Z,1.67
2022-09-02T11:54:44.516Z,1.88
2022-09-02T11:57:20.876Z,1.77
2022-09-02T11:59:50.819Z,1.70
2022-09-02T12:02:36.670Z,1.70
2022-09-02T12:05:32.928Z,1.95
2022-09-02T12:08:06.509Z,1.45
2022-09-02T12:10:43.368Z,1.70
2022-09-02T12:13:38.696Z,1.60
2022-09-02T12:16:24.187Z,1.63
2022-09-02T12:18:54.523Z,1.38
2022-09-02T12:21:26.869Z,1.50
2022-09-02T12:23:57.328Z,1.30
2022-09-02T12:26:28.777Z,1.67
2022-09-02T12:29:19.291Z,1.60
2022-09-02T12:31:50.515Z,1.83
2022-09-02T12:34:20.861Z,1.50
2022-09-02T12:36:53.932Z,1.83
2022-09-02T12:42:12.964Z,1.80
2022-09-02T12:44:49.333Z,1.42
2022-09-02T12:49:50.729Z,1.30
2022-09-02T12:52:41.023Z,1.40
2022-09-02T12:55:14.342Z,1.40
2022-09-02T12:57:44.596Z,1.27
2022-09-02T13:00:28.391Z,1.45
2022-09-02T13:03:14.582Z,1.25
2022-09-02T13:06:00.264Z,1.38
2022-09-02T13:08:33.524Z,1.52
2022-09-02T13:11:28.629Z,1.88
2022-09-02T13:14:08.772Z,1.42
2022-09-02T13:16:41.808Z,1.50
2022-09-02T13:22:49.220Z,1.80
2022-09-02T13:25:48.020Z,1.52
2022-09-02T13:28:59.160Z,1.50
2022-09-02T13:31:27.859Z,1.70
2022-09-02T13:34:03.675Z,1.55
2022-09-02T13:36:40.836Z,1.30
2022-09-02T13:39:28.418Z,1.85
2022-09-02T13:41:57.367Z,1.30
2022-09-02T13:44:27.258Z,1.45
2022-09-02T13:47:04.638Z,2.72
2022-09-02T14:00:41.317Z,1.98
2022-09-02T14:03:15.143Z,1.38
2022-09-02T14:05:47.638Z,1.52
2022-09-02T14:08:19.232Z,1.50
2022-09-02T14:10:49.375Z,1.23
2022-09-02T14:13:17.343Z,1.58
2022-09-02T14:15:45.296Z,1.33
2022-09-02T14:18:18.991Z,1.50
2022-09-02T14:21:17.783Z,1.58
2022-09-02T14:23:51.043Z,1.30
2022-09-02T14:26:28.861Z,1.33
2022-09-02T14:28:56.388Z,1.33
2022-09-02T14:31:30.990Z,1.70
2022-09-02T14:33:58.420Z,1.65
2022-09-02T14:36:25.652Z,1.40
2022-09-02T14:38:55.734Z,1.20
2022-09-02T14:41:36.230Z,1.33
2022-09-02T14:44:11.001Z,1.30
2022-09-02T14:46:46.792Z,1.45
2022-09-02T14:49:21.968Z,1.60
2022-09-02T14:51:51.989Z,1.52
2022-09-02T14:54:39.847Z,1.50
2022-09-02T14:57:22.628Z,1.42
2022-09-02T15:03:42.397Z,1.45
2022-09-02T15:07:03.263Z,1.40
2022-09-02T15:12:58.507Z,1.35
2022-09-02T15:19:04.488Z,1.25
2022-09-02T15:21:32.411Z,1.40
2022-09-02T15:23:59.692Z,1.58
2022-09-02T15:26:27.143Z,1.45
2022-09-02T15:28:54.465Z,1.20
2022-09-02T15:31:21.919Z,1.50
2022-09-02T15:33:51.748Z,1.50
2022-09-02T15:36:19.385Z,1.48
2022-09-02T15:38:47.311Z,1.25
2022-09-02T15:41:24.063Z,1.63
2022-09-02T15:43:55.054Z,1.80
2022-09-02T15:46:26.507Z,1.08
2022-09-02T15:48:57.879Z,1.20
2022-09-02T15:51:32.330Z,1.10
2022-09-02T15:54:03.228Z,1.38
2022-09-02T15:56:33.265Z,1.42
2022-09-02T15:59:02.978Z,1.23
2022-09-02T16:01:33.493Z,1.52
2022-09-02T16:04:04.896Z,1.10
2022-09-02T16:06:36.003Z,1.80
2022-09-02T16:09:03.881Z,1.67
2022-09-02T16:11:31.184Z,1.45
2022-09-02T16:13:58.913Z,1.58
2022-09-02T16:16:26.270Z,2.17
2022-09-02T16:18:54.903Z,1.50
2022-09-02T16:21:23.552Z,1.70
2022-09-02T16:23:52.527Z,2.20
2022-09-02T16:26:30.902Z,1.70
2022-09-02T16:29:09.507Z,1.67
2022-09-02T16:31:39.337Z,1.33
2022-09-02T16:34:09.767Z,1.30
2022-09-02T16:36:42.400Z,1.85
2022-09-02T16:39:12.071Z,1.50
2022-09-02T16:41:45.372Z,1.30
2022-09-02T16:44:16.455Z,3.03
2022-09-02T16:46:45.137Z,2.90
2022-09-02T16:49:26.339Z,2.65
2022-09-02T16:52:06.756Z,1.80
2022-09-02T16:55:02.900Z,2.80
2022-09-02T16:57:45.793Z,3.13
2022-09-02T17:00:44.058Z,4.72
2022-09-02T17:03:13.042Z,6.65
2022-09-02T17:05:49.638Z,4.68
2022-09-02T17:09:00.343Z,5.32
2022-09-02T17:11:34.340Z,4.45
2022-09-02T17:14:04.871Z,6.37
2022-09-02T17:16:36.575Z,5.55
2022-09-02T17:19:04.670Z,4.80
2022-09-02T17:21:42.860Z,2.03
2022-09-02T17:24:12.405Z,1.50
2022-09-02T17:26:42.071Z,1.73
2022-09-02T17:29:26.236Z,1.60
2022-09-02T17:31:59.410Z,1.95
2022-09-02T17:34:26.791Z,1.67
2022-09-02T17:36:53.995Z,1.75
2022-09-02T17:39:21.780Z,1.10
2022-09-02T17:41:54.644Z,2.03
2022-09-02T17:44:24.803Z,1.60
2022-09-02T17:46:52.345Z,1.75
2022-09-02T17:49:20.965Z,1.20
2022-09-02T17:51:48.450Z,1.30
2022-09-02T17:54:15.763Z,1.48
2022-09-02T17:57:07.516Z,2.17
2022-09-02T17:59:53.481Z,1.60
2022-09-02T18:02:33.303Z,1.80
2022-09-02T18:05:29.169Z,1.77
2022-09-02T18:08:05.928Z,3.00
2022-09-02T18:10:36.355Z,1.60
2022-09-02T18:13:06.285Z,1.90
2022-09-02T18:15:58.993Z,1.60
2022-09-02T18:18:28.213Z,1.63
2022-09-02T18:21:12.652Z,1.60
2022-09-02T18:24:02.531Z,1.70
2022-09-02T18:26:40.246Z,3.13
2022-09-02T18:29:32.869Z,1.40
2022-09-02T18:32:06.051Z,1.98
2022-09-02T18:34:44.371Z,1.52
2022-09-02T18:37:31.364Z,2.80
2022-09-02T18:40:26.706Z,1.42
2022-09-02T18:42:56.781Z,1.73
2022-09-02T18:45:39.273Z,1.38
2022-09-02T18:48:13.028Z,1.50
2022-09-02T18:50:52.288Z,1.50
2022-09-02T18:53:27.964Z,1.30
2022-09-02T18:55:57.818Z,1.77
2022-09-02T18:58:38.471Z,1.70
2022-09-02T19:01:26.951Z,1.90
2022-09-02T19:03:54.289Z,1.67
2022-09-02T19:06:28.989Z,1.52
2022-09-02T19:09:03.314Z,1.60
2022-09-02T19:11:40.244Z,1.80
2022-09-02T19:14:29.121Z,1.60
2022-09-02T19:16:58.281Z,1.60
2022-09-02T19:19:29.215Z,2.40
2022-09-02T19:22:01.854Z,1.67
2022-09-02T19:24:50.739Z,1.40
2022-09-02T19:27:27.453Z,1.33
2022-09-02T19:30:02.599Z,1.48
2022-09-02T19:32:33.366Z,1.38
2022-09-02T19:35:05.736Z,1.35
2022-09-02T19:37:32.988Z,1.80
2022-09-02T19:40:07.140Z,1.80
2022-09-02T19:42:34.415Z,1.80
2022-09-02T19:45:01.893Z,1.60
2022-09-02T19:48:05.576Z,1.25
2022-09-02T19:50:18.049Z,1.90
2022-09-02T19:52:46.149Z,1.73
2022-09-02T19:55:16.039Z,1.55
2022-09-02T19:57:43.962Z,1.40
2022-09-02T20:00:12.919Z,1.73
2022-09-02T20:02:40.759Z,1.67
2022-09-02T20:05:13.829Z,1.38
2022-09-02T20:07:41.591Z,1.70
2022-09-02T20:10:09.513Z,2.00
2022-09-02T20:12:36.839Z,2.17
2022-09-02T20:15:05.353Z,1.55
2022-09-02T20:17:33.031Z,1.30
2022-09-02T20:20:11.964Z,1.52
2022-09-02T20:22:39.185Z,1.92
2022-09-02T20:25:06.756Z,1.70
2022-09-02T20:28:16.809Z,3.33
2022-09-02T20:30:52.018Z,1.58
2022-09-02T20:33:21.994Z,2.25
2022-09-02T20:35:52.227Z,1.60
2022-09-02T20:38:51.557Z,1.60
2022-09-02T20:41:47.822Z,1.80
2022-09-02T20:44:27.465Z,1.75
2022-09-02T20:47:29.814Z,1.58
2022-09-02T20:50:08.551Z,2.22
2022-09-02T20:52:59.809Z,1.80
2022-09-02T20:55:49.472Z,1.88
2022-09-02T20:58:36.056Z,1.98
2022-09-02T21:01:20.492Z,2.03
2022-09-02T21:03:59.971Z,1.75
2022-09-02T21:06:34.083Z,1.60
2022-09-02T21:09:35.057Z,2.35
2022-09-02T21:12:10.582Z,1.90
2022-09-02T21:14:46.940Z,1.85
2022-09-02T21:17:31.057Z,1.88
2022-09-02T21:20:19.824Z,1.63
2022-09-02T21:23:00.556Z,1.90
2022-09-02T21:25:35.332Z,1.58
2022-09-02T21:28:16.329Z,1.92
2022-09-02T21:30:54.751Z,2.05
2022-09-02T21:33:25.618Z,2.60
2022-09-02T21:35:54.145Z,2.17
2022-09-02T21:38:33.353Z,1.67
2022-09-02T21:41:03.912Z,1.63
2022-09-02T21:43:57.865Z,2.17
2022-09-02T21:46:36.156Z,2.05
2022-09-02T21:49:37.964Z,2.17
2022-09-02T21:52:10.892Z,1.80
2022-09-02T21:54:49.791Z,2.10
2022-09-02T21:57:42.923Z,2.03
2022-09-02T22:00:16.810Z,1.92
2022-09-02T22:02:59.500Z,2.00
2022-09-02T22:05:53.974Z,2.10
2022-09-02T22:08:32.200Z,1.85
2022-09-02T22:11:15.073Z,2.20
2022-09-02T22:13:42.356Z,1.80
2022-09-02T22:16:39.369Z,2.28
2022-09-02T22:19:08.563Z,2.05
2022-09-02T22:21:48.676Z,1.55
2022-09-02T22:24:22.882Z,2.45
2022-09-02T22:26:54.298Z,1.80
2022-09-02T22:29:57.114Z,2.63
2022-09-02T22:32:28.584Z,2.00
2022-09-02T22:35:10.044Z,2.05
2022-09-02T22:38:10.308Z,2.03
2022-09-02T22:40:45.996Z,2.25
2022-09-02T22:43:19.151Z,2.10
2022-09-02T22:46:13.332Z,2.05
2022-09-02T22:49:04.044Z,2.72
2022-09-02T22:52:03.739Z,2.10
2022-09-02T22:54:32.032Z,1.80
2022-09-02T22:57:32.732Z,2.22
2022-09-02T23:00:09.451Z,1.83
2022-09-02T23:03:11.647Z,2.42
2022-09-02T23:06:03.624Z,2.20
2022-09-02T23:08:36.986Z,1.77
2022-09-02T23:13:59.970Z,2.45
2022-09-02T23:17:03.742Z,2.17
2022-09-02T23:19:56.316Z,2.80
2022-09-02T23:22:44.163Z,2.15
2022-09-02T23:25:30.760Z,1.98
2022-09-02T23:28:16.599Z,2.28
2022-09-02T23:31:00.467Z,2.58
2022-09-02T23:33:27.816Z,2.25
2022-09-02T23:36:15.220Z,1.92
2022-09-02T23:39:08.524Z,1.77
2022-09-02T23:41:38.031Z,2.17
2022-09-02T23:44:06.914Z,1.83
2022-09-02T23:47:12.335Z,2.20
2022-09-02T23:49:51.760Z,2.20
2022-09-02T23:52:36.620Z,2.63
2022-09-02T23:55:09.011Z,2.53
2022-09-02T23:58:00.251Z,2.17
